Time;durP1;ratioP1;P1;durP2;ratioP2;P2;SDS_P1;SDS_P2;PMS_P1;PMS_P2;Temp;Humidity;BMP_temperature;BMP_pressure;BME280_temperature;BME280_humidity;BME280_pressure;Samples;Min_cycle;Max_cycle;Signal;HPM_P1;HPM_P2
2022/10/28 00:00:50;;;;;;;17.05;8.85;;;;;;;11.80;67.91;101387.56;5088523;28;20075;-27
2022/10/28 00:03:17;;;;;;;15.18;8.63;;;;;;;11.78;68.23;101394.13;5088177;28;20043;-29
2022/10/28 00:05:43;;;;;;;16.65;9.63;;;;;;;11.66;68.07;101399.97;5088258;28;20078;-27
2022/10/28 00:08:08;;;;;;;24.55;10.93;;;;;;;11.55;68.04;101391.69;5088559;28;20055;-27
2022/10/28 00:10:34;;;;;;;23.17;11.48;;;;;;;11.45;68.43;101402.69;5088059;28;20032;-26
2022/10/28 00:12:59;;;;;;;20.20;11.60;;;;;;;11.26;68.99;101388.97;5088419;28;20051;-26
2022/10/28 00:15:25;;;;;;;19.77;12.20;;;;;;;11.23;68.91;101389.31;5088398;28;20066;-28
2022/10/28 00:17:50;;;;;;;26.83;14.00;;;;;;;11.20;69.01;101381.72;5088213;28;20067;-26
2022/10/28 00:20:16;;;;;;;23.85;12.93;;;;;;;11.12;69.21;101365.81;5088082;28;20036;-28
2022/10/28 00:22:42;;;;;;;21.58;11.85;;;;;;;11.26;69.53;101388.13;5053351;28;20028;-30
2022/10/28 00:25:07;;;;;;;21.73;12.07;;;;;;;11.18;70.24;101380.25;5086950;28;20036;-29
2022/10/28 00:27:33;;;;;;;23.55;12.70;;;;;;;11.42;69.05;101371.00;5088178;28;20028;-26
2022/10/28 00:29:59;;;;;;;21.33;12.25;;;;;;;11.33;69.89;101388.19;5069808;28;20032;-27
2022/10/28 00:32:28;;;;;;;22.85;12.95;;;;;;;11.69;68.75;101382.75;5087604;28;20031;-27
2022/10/28 00:34:54;;;;;;;21.80;12.55;;;;;;;11.48;68.62;101359.53;5069579;28;20554;-28
2022/10/28 00:37:19;;;;;;;26.63;12.75;;;;;;;11.31;70.29;101391.06;5087934;28;20025;-27
2022/10/28 00:39:44;;;;;;;20.75;12.55;;;;;;;11.16;69.44;101377.78;5087076;28;20036;-28
2022/10/28 00:42:11;;;;;;;22.83;11.55;;;;;;;11.49;68.81;101403.97;5087738;28;20036;-30
2022/10/28 00:44:53;;;;;;;24.05;11.40;;;;;;;11.37;67.86;101405.50;5087646;28;20515;-28
2022/10/28 00:47:30;;;;;;;24.50;11.73;;;;;;;11.23;67.34;101410.69;5087713;28;20024;-27
2022/10/28 00:50:05;;;;;;;23.48;12.45;;;;;;;11.23;66.99;101405.34;5087870;28;20035;-27
2022/10/28 00:52:31;;;;;;;31.77;13.90;;;;;;;11.23;66.97;101400.00;5069143;28;20560;-26
2022/10/28 00:55:00;;;;;;;26.00;13.60;;;;;;;10.93;68.86;101393.97;5069462;28;20032;-28
2022/10/28 00:57:30;;;;;;;29.13;13.52;;;;;;;10.93;69.24;101403.78;5069037;28;20053;-29
2022/10/28 00:59:57;;;;;;;23.40;12.95;;;;;;;10.32;70.57;101380.91;5088139;28;20032;-26
2022/10/28 01:02:23;;;;;;;24.90;13.43;;;;;;;10.81;69.48;101390.94;5087100;28;20028;-28
2022/10/28 01:04:49;;;;;;;25.48;13.32;;;;;;;10.76;68.79;101398.69;5087179;28;20051;-28
2022/10/28 01:07:15;;;;;;;26.58;12.98;;;;;;;10.48;70.74;101405.72;5087748;28;20024;-26
2022/10/28 01:09:41;;;;;;;23.50;12.25;;;;;;;10.43;69.96;101391.09;5087099;28;20036;-26
2022/10/28 01:12:39;;;;;;;23.63;12.15;;;;;;;10.56;69.94;101394.94;5087186;28;20038;-29
2022/10/28 01:15:26;;;;;;;24.73;12.10;;;;;;;10.58;68.87;101398.25;5087366;28;20031;-28
2022/10/28 01:18:19;;;;;;;22.48;12.90;;;;;;;10.55;69.13;101372.78;5087058;28;20028;-27
2022/10/28 01:20:44;;;;;;;23.77;14.00;;;;;;;10.73;69.83;101387.56;5087288;28;20032;-27
2022/10/28 01:23:28;;;;;;;34.08;17.05;;;;;;;10.64;71.34;101374.34;5086972;28;20496;-27
2022/10/28 01:26:22;;;;;;;29.15;15.82;;;;;;;11.06;70.01;101393.28;5087462;28;20043;-26
2022/10/28 01:29:09;;;;;;;36.20;17.27;;;;;;;10.98;70.15;101388.88;5087003;28;20032;-27
2022/10/28 01:31:46;;;;;;;35.22;17.50;;;;;;;11.05;70.95;101386.28;5069022;28;20140;-29
2022/10/28 01:34:40;;;;;;;38.60;18.42;;;;;;;10.94;70.43;101398.28;5087603;28;20062;-28
2022/10/28 01:37:16;;;;;;;51.10;23.65;;;;;;;10.97;70.72;101389.06;5077762;28;20040;-29
2022/10/28 01:40:01;;;;;;;61.00;27.23;;;;;;;10.99;70.15;101389.69;5086936;28;20096;-26
2022/10/28 01:42:35;;;;;;;52.90;24.70;;;;;;;10.95;70.61;101385.75;5086743;28;20403;-27
2022/10/28 01:45:06;;;;;;;38.85;19.48;;;;;;;10.95;70.57;101380.41;5087221;28;20027;-26
2022/10/28 01:47:42;;;;;;;28.90;15.07;;;;;;;10.69;71.74;101395.13;5086763;28;20133;-28
2022/10/28 01:50:20;;;;;;;28.83;15.45;;;;;;;10.25;72.93;101369.28;5087157;28;20028;-26
2022/10/28 01:52:47;;;;;;;20.95;12.13;;;;;;;10.66;71.29;101395.47;5068859;28;20035;-27
2022/10/28 01:55:26;;;;;;;20.83;10.82;;;;;;;10.51;72.50;101394.69;5087368;28;20120;-28
2022/10/28 01:57:56;;;;;;;19.95;10.38;;;;;;;10.36;72.55;101394.69;5086876;28;20104;-26
2022/10/28 02:00:21;;;;;;;17.00;9.90;;;;;;;10.15;73.85;101396.22;5087151;28;20395;-27
2022/10/28 02:02:48;;;;;;;20.80;10.70;;;;;;;10.30;72.88;101377.59;5087036;28;20028;-27
2022/10/28 02:05:46;;;;;;;19.73;11.32;;;;;;;10.40;71.66;101388.81;5087224;28;20105;-27
2022/10/28 02:08:14;;;;;;;16.75;9.50;;;;;;;10.14;73.08;101404.41;5068549;28;20053;-27
2022/10/28 02:10:45;;;;;;;22.83;12.48;;;;;;;9.81;73.72;101388.75;5086693;28;20411;-27
2022/10/28 02:13:13;;;;;;;27.33;14.27;;;;;;;10.13;73.29;101408.06;5086819;28;20036;-28
2022/10/28 02:15:51;;;;;;;29.10;14.00;;;;;;;9.83;73.74;101405.38;5087128;28;20506;-31
2022/10/28 02:18:23;;;;;;;;;;;;;;;9.65;74.85;101411.03;5087500;28;20270;-26
2022/10/28 02:20:54;;;;;;;22.15;11.15;;;;;;;9.92;74.19;101406.94;5085459;28;20407;-26
2022/10/28 02:23:22;;;;;;;21.52;10.75;;;;;;;10.14;73.45;101401.75;5068760;28;20085;-27
2022/10/28 02:26:00;;;;;;;;;;;;;;;10.22;73.31;101396.31;5087190;28;20047;-27
2022/10/28 02:28:49;;;;;;;20.67;9.90;;;;;;;10.31;72.49;101405.09;5068290;28;19925;-25
2022/10/28 02:31:35;;;;;;;18.65;9.82;;;;;;;9.91;73.53;101407.97;5086704;28;20427;-28
2022/10/28 02:34:08;;;;;;;18.20;10.40;;;;;;;10.08;72.62;101399.81;5087840;28;20028;-29
2022/10/28 02:36:38;;;;;;;32.50;8.82;;;;;;;10.10;72.33;101403.13;5089887;28;20115;-27
2022/10/28 02:39:05;;;;;;;19.95;9.00;;;;;;;10.41;71.30;101410.97;5072360;28;20035;-27
2022/10/28 02:41:43;;;;;;;17.57;8.17;;;;;;;10.28;72.14;101416.94;5090052;28;20052;-28
2022/10/28 02:44:11;;;;;;;;;;;;;;;10.51;71.07;101411.50;5090930;28;20565;-28
2022/10/28 02:46:40;;;;;;;16.15;7.63;;;;;;;10.55;70.76;101430.66;5089948;28;19912;-28
2022/10/28 02:49:10;;;;;;;17.50;8.13;;;;;;;10.28;71.98;101427.59;5090371;28;20487;-29
2022/10/28 02:51:40;;;;;;;16.15;8.73;;;;;;;10.52;71.35;101420.34;5089997;28;20217;-26
2022/10/28 02:54:19;;;;;;;20.05;9.75;;;;;;;10.30;71.46;101406.94;5089841;28;20035;-29
2022/10/28 02:57:02;;;;;;;17.00;10.00;;;;;;;10.33;72.12;101425.22;5089804;28;20032;-26
2022/10/28 02:59:28;;;;;;;21.40;10.77;;;;;;;10.41;71.16;101430.44;5090144;28;20032;-28
2022/10/28 03:01:54;;;;;;;25.70;13.82;;;;;;;10.29;70.80;101413.22;5089455;28;20028;-28
2022/10/28 03:04:19;;;;;;;26.27;11.93;;;;;;;10.49;71.06;101431.38;5087828;28;20675;-26
2022/10/28 03:06:45;;;;;;;33.20;15.20;;;;;;;10.28;71.61;101427.59;5088999;28;20048;-26
2022/10/28 03:09:10;;;;;;;33.63;14.77;;;;;;;10.34;71.30;101429.56;5089483;28;20053;-28
2022/10/28 03:11:36;;;;;;;41.75;17.30;;;;;;;10.51;70.45;101437.38;5088051;28;20105;-27
2022/10/28 03:14:01;;;;;;;33.90;15.82;;;;;;;10.45;70.49;101434.41;5089151;28;20027;-27
2022/10/28 03:16:27;;;;;;;31.23;14.60;;;;;;;10.38;70.38;101428.16;5089134;28;20484;-28
2022/10/28 03:18:53;;;;;;;32.00;14.98;;;;;;;10.47;70.15;101439.56;5088960;28;20028;-27
2022/10/28 03:21:18;;;;;;;26.38;14.43;;;;;;;9.63;72.78;101445.00;5088894;28;20070;-27
2022/10/28 03:23:44;;;;;;;30.58;14.05;;;;;;;9.98;71.29;101440.88;5089087;28;20402;-27
2022/10/28 03:26:09;;;;;;;20.45;10.38;;;;;;;10.05;71.49;101439.16;5088805;28;20120;-27
2022/10/28 03:28:34;;;;;;;26.05;12.60;;;;;;;10.00;71.66;101441.50;5070356;28;20568;-26
2022/10/28 03:31:00;;;;;;;29.52;13.57;;;;;;;9.60;72.69;101426.72;5087758;28;20053;-26
2022/10/28 03:33:25;;;;;;;30.67;13.43;;;;;;;9.67;72.33;101434.84;5089126;28;20028;-27
2022/10/28 03:35:50;;;;;;;30.25;15.90;;;;;;;9.73;72.30;101431.47;5088361;28;20040;-29
2022/10/28 03:38:16;;;;;;;31.90;14.88;;;;;;;9.86;71.59;101448.47;5070545;28;20028;-29
2022/10/28 03:40:41;;;;;;;26.58;14.20;;;;;;;9.64;71.40;101434.19;5088999;28;20024;-26
2022/10/28 03:43:07;;;;;;;16.73;9.63;;;;;;;9.63;72.41;101459.16;5089091;28;20486;-27
2022/10/28 03:45:32;;;;;;;18.70;10.52;;;;;;;9.44;73.06;101441.00;5088752;28;20039;-27
2022/10/28 03:47:58;;;;;;;19.98;8.77;;;;;;;8.71;75.46;101435.09;5070351;28;20024;-27
2022/10/28 03:50:24;;;;;;;15.50;8.40;;;;;;;9.37;73.57;101456.03;5088089;28;20024;-27
2022/10/28 03:52:49;;;;;;;15.15;8.57;;;;;;;9.21;73.72;101441.81;5088650;28;20035;-26
2022/10/28 03:55:15;;;;;;;15.75;7.63;;;;;;;8.98;74.78;101448.94;5088554;28;20031;-29
2022/10/28 03:57:40;;;;;;;18.85;8.95;;;;;;;9.22;74.30;101454.13;5088603;28;20024;-27
2022/10/28 04:00:06;;;;;;;20.13;10.45;;;;;;;9.28;73.75;101441.13;5088514;28;20625;-26
2022/10/28 04:02:32;;;;;;;22.05;10.65;;;;;;;9.56;73.11;101458.22;5086504;28;20035;-26
2022/10/28 04:04:57;;;;;;;27.33;11.18;;;;;;;9.47;72.08;101440.63;5087995;28;20052;-30
2022/10/28 04:07:23;;;;;;;39.88;13.40;;;;;;;9.51;72.32;101463.25;5088230;28;20099;-30
2022/10/28 04:09:50;;;;;;;26.27;10.00;;;;;;;9.43;72.27;101437.50;5087964;28;20051;-27
2022/10/28 04:12:16;;;;;;;26.60;10.77;;;;;;;9.44;73.17;101454.31;5087802;28;20403;-34
2022/10/28 04:14:42;;;;;;;19.20;9.70;;;;;;;8.92;74.51;101457.59;5088584;28;20605;-30
2022/10/28 04:17:07;;;;;;;18.08;9.07;;;;;;;8.67;75.66;101455.06;5088333;28;20055;-27
2022/10/28 04:19:32;;;;;;;14.30;7.55;;;;;;;9.03;74.42;101455.41;5088362;28;20039;-26
2022/10/28 04:21:58;;;;;;;12.52;7.75;;;;;;;8.98;73.81;101440.94;5088127;28;20687;-31
2022/10/28 04:24:23;;;;;;;15.50;7.65;;;;;;;9.24;73.22;101456.59;5087590;28;20020;-29
2022/10/28 04:26:49;;;;;;;12.73;8.27;;;;;;;9.16;73.11;101451.34;5088341;28;20039;-31
2022/10/28 04:29:14;;;;;;;14.85;8.00;;;;;;;9.23;72.63;101462.91;5086388;28;20044;-28
2022/10/28 04:31:39;;;;;;;16.75;8.13;;;;;;;9.33;71.84;101438.75;5088314;28;20105;-27
2022/10/28 04:34:05;;;;;;;16.50;8.15;;;;;;;9.06;71.96;101462.19;5087849;28;20028;-26
2022/10/28 04:36:30;;;;;;;17.58;8.63;;;;;;;9.11;71.99;101456.34;5087318;28;20118;-26
2022/10/28 04:38:56;;;;;;;17.45;7.75;;;;;;;9.44;71.10;101462.31;5087820;28;20450;-26
2022/10/28 04:41:21;;;;;;;17.88;9.10;;;;;;;9.00;72.94;101444.25;5069290;28;20036;-26
2022/10/28 04:43:46;;;;;;;14.25;7.47;;;;;;;9.21;72.40;101449.81;5087950;28;20028;-27
2022/10/28 04:46:12;;;;;;;15.15;7.78;;;;;;;9.50;71.74;101466.94;5087541;28;20805;-27
2022/10/28 04:48:37;;;;;;;16.35;7.80;;;;;;;8.99;73.41;101443.44;5087167;28;20828;-27
2022/10/28 04:51:03;;;;;;;15.68;8.32;;;;;;;8.90;75.16;101448.97;5087416;28;20028;-31
2022/10/28 04:53:28;;;;;;;15.20;7.63;;;;;;;8.87;76.10;101438.66;5087527;28;20411;-26
2022/10/28 04:55:57;;;;;;;17.50;7.28;;;;;;;8.92;77.43;101457.59;5087314;28;20073;-28
2022/10/28 04:58:23;;;;;;;16.23;8.32;;;;;;;8.92;77.76;101466.41;5086628;28;20480;-28
2022/10/28 05:00:48;;;;;;;18.52;7.45;;;;;;;9.13;77.44;101447.16;5087475;28;20032;-28
2022/10/28 05:03:14;;;;;;;16.23;7.55;;;;;;;8.91;77.24;101456.78;5086949;28;20039;-28
2022/10/28 05:05:39;;;;;;;15.85;8.43;;;;;;;9.39;75.66;101465.47;5068647;28;20555;-26
2022/10/28 05:08:05;;;;;;;17.05;7.75;;;;;;;9.51;76.13;101463.25;5087363;28;20032;-27
2022/10/28 05:10:31;;;;;;;14.15;7.90;;;;;;;9.73;75.80;101466.91;5052093;28;20020;-28
2022/10/28 05:12:56;;;;;;;16.02;7.70;;;;;;;10.00;74.81;101457.50;5087062;28;20085;-26
2022/10/28 05:15:22;;;;;;;16.10;7.95;;;;;;;9.91;74.49;101447.94;5087182;28;20032;-27
2022/10/28 05:17:47;;;;;;;15.98;8.38;;;;;;;10.18;73.58;101459.03;5086944;28;20155;-28
2022/10/28 05:20:16;;;;;;;21.13;8.32;;;;;;;10.20;73.92;101462.34;5086735;28;20038;-27
2022/10/28 05:22:52;;;;;;;49.92;9.48;;;;;;;9.96;76.65;101464.22;5087120;28;20040;-26
2022/10/28 05:25:18;;;;;;;22.73;9.38;;;;;;;10.13;76.04;101472.06;5087148;28;20024;-27
2022/10/28 05:27:44;;;;;;;17.65;9.27;;;;;;;10.49;74.87;101482.06;5087167;28;20568;-29
2022/10/28 05:30:10;;;;;;;22.30;9.15;;;;;;;10.74;73.28;101486.09;5086790;28;20090;-27
2022/10/28 05:32:36;;;;;;;22.38;8.77;;;;;;;10.54;73.06;101466.31;5086580;28;20105;-26
2022/10/28 05:35:02;;;;;;;18.55;8.40;;;;;;;10.54;73.67;101495.66;5087070;28;20513;-27
2022/10/28 05:37:27;;;;;;;17.80;8.45;;;;;;;10.53;73.11;101502.03;5087134;28;20027;-27
2022/10/28 05:39:53;;;;;;;20.27;10.30;;;;;;;10.50;74.42;101495.22;5087087;28;20032;-26
2022/10/28 05:42:18;;;;;;;22.80;9.15;;;;;;;10.57;75.25;101498.81;5086845;28;20028;-26
2022/10/28 05:44:44;;;;;;;18.65;9.65;;;;;;;10.65;74.92;101492.56;5086925;28;20085;-26
2022/10/28 05:47:09;;;;;;;20.70;9.90;;;;;;;10.49;76.08;101503.41;5086796;28;20032;-27
2022/10/28 05:49:34;;;;;;;22.95;9.10;;;;;;;10.31;77.25;101485.91;5086860;28;20488;-27
2022/10/28 05:52:00;;;;;;;22.48;10.45;;;;;;;10.40;78.55;101507.97;5086963;28;20510;-30
2022/10/28 05:54:25;;;;;;;33.63;10.70;;;;;;;10.47;78.73;101510.75;5086653;28;20046;-27
2022/10/28 05:56:51;;;;;;;39.83;12.50;;;;;;;10.59;78.87;101503.97;5086673;28;20054;-26
2022/10/28 05:59:16;;;;;;;34.35;11.90;;;;;;;10.49;80.78;101514.06;5086854;28;20047;-27
2022/10/28 06:01:41;;;;;;;38.38;13.30;;;;;;;10.54;81.19;101517.00;5086767;28;20028;-26
2022/10/28 06:04:07;;;;;;;41.85;14.48;;;;;;;10.63;81.29;101492.72;5086869;28;20073;-25
2022/10/28 06:06:32;;;;;;;55.08;14.20;;;;;;;10.67;82.12;101516.38;5086650;28;20051;-26
2022/10/28 06:08:58;;;;;;;60.85;14.25;;;;;;;10.56;82.56;101499.81;5087859;28;20058;-30
2022/10/28 06:11:23;;;;;;;56.78;15.40;;;;;;;10.65;83.30;101498.72;5090713;28;20032;-27
2022/10/28 06:13:49;;;;;;;52.30;15.52;;;;;;;10.86;82.69;101508.63;5090469;28;20035;-31
2022/10/28 06:16:14;;;;;;;58.45;16.90;;;;;;;10.87;82.78;101501.47;5090319;28;20423;-30
2022/10/28 06:18:39;;;;;;;76.13;18.27;;;;;;;10.82;83.41;101502.00;5090104;28;20043;-27
2022/10/28 06:21:05;;;;;;;64.18;16.52;;;;;;;10.97;83.66;101522.53;5090492;28;20020;-26
2022/10/28 06:23:30;;;;;;;71.47;16.92;;;;;;;11.04;84.65;101504.75;5090513;28;20026;-27
2022/10/28 06:26:01;;;;;;;49.13;15.90;;;;;;;11.21;84.54;101516.03;5090343;28;20118;-27
2022/10/28 06:28:27;;;;;;;66.35;17.75;;;;;;;11.13;86.22;101516.97;5090005;28;20028;-28
2022/10/28 06:30:52;;;;;;;66.18;17.02;;;;;;;11.23;85.89;101522.84;5089897;28;20032;-26
2022/10/28 06:33:18;;;;;;;70.55;17.98;;;;;;;11.10;86.54;101522.69;5090456;28;20078;-26
2022/10/28 06:35:44;;;;;;;70.35;18.95;;;;;;;11.13;86.86;101500.94;5090195;28;20043;-29
2022/10/28 06:38:09;;;;;;;80.05;27.13;;;;;;;11.24;87.75;101513.84;5090139;28;20032;-27
2022/10/28 06:40:35;;;;;;;92.47;33.47;;;;;;;11.36;87.39;101508.84;5089527;28;20058;-28
2022/10/28 06:43:05;;;;;;;126.80;43.55;;;;;;;11.78;87.00;101530.44;5089761;28;20026;-27
2022/10/28 06:45:32;;;;;;;74.30;25.05;;;;;;;11.94;85.91;101530.19;5089550;28;20028;-28
2022/10/28 06:48:02;;;;;;;49.23;15.20;;;;;;;12.18;85.09;101530.81;5089849;28;20039;-28
2022/10/28 06:50:29;;;;;;;38.28;14.63;;;;;;;11.95;85.48;101515.84;5089667;28;20784;-29
2022/10/28 06:52:57;;;;;;;35.90;13.10;;;;;;;12.10;85.06;101522.94;5089703;28;20027;-27
2022/10/28 06:55:24;;;;;;;35.42;13.07;;;;;;;12.17;84.99;101529.16;5089850;28;20020;-29
2022/10/28 06:57:50;;;;;;;30.63;11.82;;;;;;;12.52;83.03;101532.69;5089297;28;20028;-26
2022/10/28 07:00:16;;;;;;;41.60;13.80;;;;;;;12.58;81.95;101515.03;5089207;28;20105;-34
2022/10/28 07:02:41;;;;;;;33.03;12.38;;;;;;;12.97;80.20;101525.13;5089570;28;20040;-27
2022/10/28 07:05:07;;;;;;;33.90;13.65;;;;;;;13.12;78.43;101516.97;5089443;28;20051;-29
2022/10/28 07:07:36;;;;;;;35.15;13.63;;;;;;;13.36;75.56;101530.88;5089444;28;20028;-27
2022/10/28 07:10:02;;;;;;;34.50;14.95;;;;;;;13.19;76.96;101528.53;5089099;28;20056;-28
2022/10/28 07:12:28;;;;;;;31.63;12.65;;;;;;;13.06;77.92;101529.31;5089078;28;20028;-28
2022/10/28 07:14:53;;;;;;;34.03;13.43;;;;;;;13.42;75.68;101524.72;5089165;28;20032;-27
2022/10/28 07:17:18;;;;;;;28.38;13.02;;;;;;;13.61;73.44;101532.00;5089263;28;20129;-26
2022/10/28 07:19:44;;;;;;;23.73;12.70;;;;;;;13.80;70.04;101530.38;5088397;28;20036;-25
2022/10/28 07:22:09;;;;;;;23.48;12.23;;;;;;;13.99;69.71;101531.41;5089024;28;20073;-28
2022/10/28 07:24:34;;;;;;;25.55;11.88;;;;;;;14.24;66.64;101533.47;5053737;28;20032;-25
2022/10/28 07:27:00;;;;;;;22.70;11.43;;;;;;;14.33;66.12;101529.56;5088813;28;20658;-28
2022/10/28 07:29:25;;;;;;;19.38;11.27;;;;;;;14.47;66.24;101514.28;5088368;28;20085;-28
2022/10/28 07:31:53;;;;;;;16.95;10.50;;;;;;;14.51;64.22;101512.00;5088800;28;20028;-29
2022/10/28 07:34:20;;;;;;;17.95;11.02;;;;;;;14.44;63.35;101502.09;5088356;28;20028;-27
2022/10/28 07:36:49;;;;;;;16.33;10.38;;;;;;;14.91;63.38;101522.66;5088645;28;20147;-31
2022/10/28 07:39:15;;;;;;;17.30;11.30;;;;;;;15.02;62.37;101508.56;5088560;28;20549;-27
2022/10/28 07:41:40;;;;;;;16.15;9.73;;;;;;;15.05;62.38;101510.81;5088434;28;20032;-30
2022/10/28 07:44:06;;;;;;;16.73;10.25;;;;;;;15.10;63.20;101513.72;5089046;28;20024;-26
2022/10/28 07:46:32;;;;;;;14.30;9.23;;;;;;;15.14;63.26;101514.94;5088766;28;20115;-27
2022/10/28 07:48:58;;;;;;;15.50;9.25;;;;;;;15.23;63.38;101513.63;5088653;28;20035;-30
2022/10/28 07:51:23;;;;;;;15.88;9.32;;;;;;;15.37;62.86;101518.94;5070283;28;20020;-30
2022/10/28 07:53:48;;;;;;;13.43;8.75;;;;;;;15.38;62.12;101497.22;5088795;28;20516;-27
2022/10/28 07:56:14;;;;;;;12.00;8.65;;;;;;;15.39;61.76;101504.25;5088249;28;20027;-27
2022/10/28 07:58:41;;;;;;;14.85;8.35;;;;;;;15.62;61.70;101517.13;5088164;28;20035;-28
2022/10/28 08:01:08;;;;;;;14.25;8.52;;;;;;;15.60;61.28;101496.88;5088369;28;20443;-26
2022/10/28 08:03:34;;;;;;;14.00;8.60;;;;;;;15.78;60.98;101504.25;5088502;28;20047;-28
2022/10/28 08:06:09;;;;;;;15.90;9.13;;;;;;;16.09;60.03;101506.06;5088056;28;20044;-27
2022/10/28 08:08:35;;;;;;;18.25;8.82;;;;;;;16.10;59.49;101496.09;5087675;28;20265;-27
2022/10/28 08:11:12;;;;;;;13.38;8.88;;;;;;;16.11;59.56;101492.38;5087962;28;20028;-29
2022/10/28 08:13:38;;;;;;;13.43;8.82;;;;;;;16.41;59.42;101509.50;5086534;28;20739;-28
2022/10/28 08:16:04;;;;;;;14.27;8.52;;;;;;;16.59;58.35;101502.47;5087982;28;20035;-32
2022/10/28 08:18:29;;;;;;;14.02;8.30;;;;;;;16.77;59.44;101502.47;5087632;28;20055;-28
2022/10/28 08:20:58;;;;;;;13.73;8.50;;;;;;;17.20;57.77;101506.13;5069512;28;20513;-27
2022/10/28 08:23:23;;;;;;;14.65;8.23;;;;;;;17.38;57.26;101502.56;5087793;28;20049;-28
2022/10/28 08:25:50;;;;;;;14.45;7.78;;;;;;;17.43;56.57;101491.94;5088009;28;20767;-29
2022/10/28 08:28:15;;;;;;;11.63;7.70;;;;;;;17.33;57.46;101483.56;5087640;28;20044;-28
2022/10/28 08:30:41;;;;;;;12.45;7.25;;;;;;;17.49;56.75;101496.41;5087457;28;20156;-27
2022/10/28 08:33:06;;;;;;;10.57;6.50;;;;;;;17.26;56.56;101484.50;5087197;28;20028;-26
2022/10/28 08:35:34;;;;;;;11.45;7.22;;;;;;;17.50;57.09;101489.94;5087583;28;20036;-26
2022/10/28 08:37:59;;;;;;;13.52;7.25;;;;;;;17.61;56.30;101489.16;5069235;28;20024;-26
2022/10/28 08:40:43;;;;;;;12.90;6.53;;;;;;;17.67;56.95;101476.59;5087343;28;20059;-28
2022/10/28 08:43:33;;;;;;;9.98;6.20;;;;;;;17.67;57.14;101484.69;5071279;28;20108;-26
2022/10/28 08:46:03;;;;;;;16.67;9.77;;;;;;;18.01;55.51;101499.34;5069282;28;20036;-27
2022/10/28 08:48:35;;;;;;;11.52;7.03;;;;;;;18.32;54.12;101486.56;5086959;28;20058;-31
2022/10/28 08:51:37;;;;;;;11.88;6.85;;;;;;;18.54;53.96;101461.66;5087770;28;20115;-29
2022/10/28 08:54:11;;;;;;;8.73;6.10;;;;;;;18.46;53.76;101498.75;5085789;28;20028;-29
2022/10/28 08:56:44;;;;;;;13.57;6.60;;;;;;;18.56;53.85;101497.34;5086976;28;20106;-25
2022/10/28 08:59:17;;;;;;;10.85;6.13;;;;;;;18.59;53.57;101469.84;5069075;28;20036;-27
2022/10/28 09:02:24;;;;;;;12.50;6.70;;;;;;;18.54;53.91;101494.06;5087006;28;20036;-27
2022/10/28 09:05:02;;;;;;;11.13;6.15;;;;;;;18.72;54.10;101477.69;5004244;28;20426;-25
2022/10/28 09:07:36;;;;;;;;;;;;;;;18.98;52.64;101476.38;5004686;28;20104;-27
2022/10/28 09:10:04;;;;;;;9.80;5.82;;;;;;;19.26;52.01;101470.13;5056008;28;19916;-26
2022/10/28 09:12:52;;;;;;;;;;;;;;;19.32;51.58;101472.91;5069088;28;20114;-27
2022/10/28 09:15:39;;;;;;;10.35;6.13;;;;;;;19.12;51.96;101462.53;5068604;28;20570;-28
2022/10/28 09:18:11;;;;;;;11.07;6.00;;;;;;;19.31;51.94;101465.84;5087309;28;20076;-26
2022/10/28 09:20:52;;;;;;;12.57;6.47;;;;;;;19.46;51.53;101456.13;5086659;28;20032;-26
2022/10/28 09:23:43;;;;;;;10.80;5.72;;;;;;;19.42;50.80;101462.28;5085698;28;20558;-26
2022/10/28 09:26:08;;;;;;;9.30;4.80;;;;;;;19.39;51.12;101457.34;5087269;28;20503;-26
2022/10/28 09:28:37;;;;;;;11.20;6.40;;;;;;;19.59;50.68;101456.88;5086828;28;20032;-26
2022/10/28 09:31:24;;;;;;;11.35;6.35;;;;;;;19.74;49.66;101454.47;5085481;28;20032;-27
2022/10/28 09:34:10;;;;;;;10.48;5.55;;;;;;;19.77;49.60;101447.75;5086997;28;20089;-27
2022/10/28 09:36:41;;;;;;;11.07;5.70;;;;;;;20.09;50.55;101449.84;5080010;28;20123;-28
2022/10/28 09:39:15;;;;;;;9.60;5.60;;;;;;;20.24;49.58;101431.09;5079585;28;20036;-26
2022/10/28 09:41:43;;;;;;;10.80;5.68;;;;;;;20.59;48.67;101440.78;5085759;28;20035;-29
2022/10/28 09:44:38;;;;;;;;;;;;;;;20.64;48.46;101440.88;5089015;28;20527;-27
2022/10/28 09:47:15;;;;;;;9.48;5.00;;;;;;;20.80;48.09;101421.00;5076415;28;20629;-27
2022/10/28 09:49:42;;;;;;;10.05;5.28;;;;;;;21.12;46.74;101422.94;5072463;28;20496;-26
2022/10/28 09:52:08;;;;;;;9.60;4.77;;;;;;;21.43;45.71;101431.38;5090771;28;20056;-27
2022/10/28 09:54:41;;;;;;;9.52;5.10;;;;;;;21.69;45.39;101428.91;5090342;28;20444;-26
2022/10/28 09:57:06;;;;;;;8.95;4.65;;;;;;;21.48;44.93;101411.63;5072141;28;20028;-27
2022/10/28 09:59:33;;;;;;;10.98;4.85;;;;;;;21.71;44.99;101415.88;5090487;28;20089;-26
2022/10/28 10:01:58;;;;;;;9.30;5.00;;;;;;;21.70;45.52;101414.22;5090842;28;20089;-27
2022/10/28 10:04:26;;;;;;;6.90;4.60;;;;;;;21.71;44.68;101394.16;5090018;28;20032;-27
2022/10/28 10:07:07;;;;;;;;;;;;;;;21.93;43.18;101416.56;5090938;28;20028;-27
2022/10/28 10:09:34;;;;;;;8.85;4.68;;;;;;;21.99;43.12;101412.00;5090122;28;19923;-27
2022/10/28 10:12:06;;;;;;;8.45;5.35;;;;;;;21.89;42.67;101404.59;5090674;28;20108;-30
2022/10/28 10:14:43;;;;;;;11.18;4.55;;;;;;;22.21;41.51;101409.09;5090083;28;20042;-27
2022/10/28 10:17:17;;;;;;;8.27;4.63;;;;;;;22.66;40.79;101407.72;5071990;28;20031;-27
2022/10/28 10:20:16;;;;;;;8.52;4.93;;;;;;;22.96;39.63;101395.25;5090237;28;20499;-26
2022/10/28 10:22:44;;;;;;;8.93;5.25;;;;;;;23.01;39.58;101395.28;5073769;28;20035;-30
2022/10/28 10:25:18;;;;;;;;;;;;;;;23.38;39.11;101395.06;5090734;28;20050;-27
2022/10/28 10:27:58;;;;;;;9.13;4.72;;;;;;;23.17;39.00;101394.25;5089864;28;19907;-26
2022/10/28 10:30:47;;;;;;;12.52;4.28;;;;;;;23.27;38.20;101383.38;5089524;28;20481;-28
2022/10/28 10:33:20;;;;;;;10.20;4.50;;;;;;;23.56;37.64;101382.81;5089739;28;20028;-25
2022/10/28 10:35:52;;;;;;;8.52;4.88;;;;;;;23.64;37.62;101376.81;5089919;28;20042;-27
2022/10/28 10:38:18;;;;;;;11.77;5.20;;;;;;;23.80;37.35;101368.63;5089614;28;20028;-27
2022/10/28 10:40:51;;;;;;;9.00;4.30;;;;;;;23.81;37.40;101375.72;5089641;28;20081;-29
2022/10/28 10:43:17;;;;;;;9.82;5.13;;;;;;;24.06;36.05;101366.63;5089637;28;20040;-32
2022/10/28 10:46:17;;;;;;;6.80;3.45;;;;;;;24.24;35.03;101376.94;5088245;28;20050;-27
2022/10/28 10:48:44;;;;;;;7.20;3.38;;;;;;;23.93;35.57;101367.25;5066130;28;20064;-29
2022/10/28 10:51:29;;;;;;;5.07;3.17;;;;;;;24.14;35.62;101359.81;5089398;28;20028;-30
2022/10/28 10:53:59;;;;;;;7.05;3.17;;;;;;;24.10;33.89;101356.00;5088525;28;20036;-29
2022/10/28 10:56:32;;;;;;;7.85;3.40;;;;;;;24.43;33.72;101355.28;5070619;28;20028;-28
2022/10/28 10:59:04;;;;;;;5.82;2.85;;;;;;;25.08;33.10;101354.38;5089422;28;20107;-27
2022/10/28 11:01:37;;;;;;;7.68;3.30;;;;;;;25.31;32.75;101357.50;5089455;28;20042;-27
2022/10/28 11:04:06;;;;;;;5.28;3.47;;;;;;;25.41;33.21;101352.75;5070708;28;20036;-29
2022/10/28 11:06:38;;;;;;;4.70;2.80;;;;;;;25.77;30.94;101359.78;5088799;28;20062;-29
2022/10/28 11:09:16;;;;;;;7.90;3.70;;;;;;;25.28;32.53;101353.44;5089262;28;20888;-27
2022/10/28 11:11:41;;;;;;;7.00;3.95;;;;;;;25.19;32.57;101355.94;5089018;28;20075;-26
2022/10/28 11:14:11;;;;;;;5.65;3.10;;;;;;;24.78;32.41;101345.28;5089291;28;20459;-29
2022/10/28 11:16:56;;;;;;;7.28;2.83;;;;;;;24.91;32.58;101353.94;5087397;28;20090;-25
2022/10/28 11:19:21;;;;;;;4.95;2.78;;;;;;;25.12;31.12;101355.44;5089091;28;20022;-28
2022/10/28 11:22:26;;;;;;;5.43;2.72;;;;;;;25.76;31.40;101341.75;5088915;28;20032;-32
2022/10/28 11:25:21;;;;;;;4.82;2.55;;;;;;;26.26;29.87;101350.47;5088865;28;20026;-28
2022/10/28 11:28:01;;;;;;;7.40;3.17;;;;;;;25.96;30.77;101347.00;5089038;28;20097;-31
2022/10/28 11:30:36;;;;;;;6.47;3.20;;;;;;;26.04;30.22;101349.09;5088616;28;20492;-28
2022/10/28 11:33:10;;;;;;;7.95;2.88;;;;;;;25.96;30.39;101333.34;5088717;28;20446;-27